Polyarny Airport
UERP : now visible

Airfield :











YOU CAN JOIN US ON...

 
LOGIN :

Register | Disclaimer

   EN    FR    IT 

 









Legend :    VFR   Marginal VFR   IFR   Intensive IFR   Very Intensive IFR
Visi :
Ceiling :
>= 8 km
>= 3000ft
5 to 8 km
1000 to 3000 ft
1500m to 5 km
500 to 1000 ft
800 to 1500m
200 to 500 ft
< 800m
< 200 ft
Symbols :   Thunderstorms  Fog  Heavy snow  Heavy precipitations  Wind > 20 kt






- Airport Elevation : 1660 ft
- IATA code : PYJ


UERP - Polyarny

CURRENT METAR :
  • 250000Z 08005MPS 7000 -RA BKN008 OVC100 09/08 Q1013 R36/290158 NOSIG RMK QFE716

EXPIRED METARs :
  • 242330Z 08005MPS 9999 BKN009 OVC100 09/08 Q1013 R36/290158 NOSIG RMK QFE716
  • 242300Z 08004MPS 9999 BKN009 OVC100 09/08 Q1013 R36/290158 NOSIG RMK QFE716
  • 242230Z 07005MPS 9999 -RA BKN009 OVC100 09/08 Q1012 R36/290158 NOSIG RMK QFE715
  • 242200Z 08004MPS 9999 -SHRA BKN013CB OVC100 09/08 Q1013 R36/090060 NOSIG RMK QFE715
  • 242130Z 08004MPS 9999 -SHRA BKN016CB OVC100 09/08 Q1013 R36/090060 NOSIG RMK QFE715
  • 242100Z 09004MPS 9999 -SHRA BKN010CB OVC100 09/08 Q1014 R36/090060 NOSIG RMK QFE716
  • 242030Z 09004MPS 9999 -SHRA BKN010CB OVC100 09/07 Q1013 R36/090060 NOSIG RMK QFE716
  • 242000Z 10004MPS 9999 -SHRA BKN010 OVC100 09/07 Q1013 R36/090060 NOSIG RMK QFE716

TAF TAF UERP
Valid from the 25 at 00:00 until the 26 at 00:00 UTC


242300Z 2500/2524 09004G09MPS 6000 -SHRA BKN012CB OVC100
TEMPO 2500/2512 07006G12MPS 2500 -SHRA BR BKN007 BKN012CB OVC100
TEMPO 2512/2524 2100 -SHRA BR BKN007 BKN012CB OVC100
UERP FIR / Asia



MET'MAP, your aeronautical weather chart ! - Copyright ORBIFLY December 2007 - Disclaimer

ORBIFLY MET'MAP TEAM :

Programming & Development : Alexandra Zaïnal
Original concept : Baudouin d'Aumeries
Technical & hardware support : Manuel Goepfert
Assistance : Marc-Olivier Méhu




SOURCES & CREDITS :

   NOAA       Earth
Advisory